Time;durP1;ratioP1;P1;durP2;ratioP2;P2;SDS_P1;SDS_P2;PMS_P1;PMS_P2;Temp;Humidity;BMP_temperature;BMP_pressure;BME280_temperature;BME280_humidity;BME280_pressure;Samples;Min_cycle;Max_cycle;Signal;HPM_P1;HPM_P2
2023/07/30 00:02:03;;;;;;;7.57;5.20;;;17.50;99.90;;;;;;5067560;28;20166;-73
2023/07/30 00:04:29;;;;;;;5.53;5.03;;;17.50;99.90;;;;;;5081944;28;20181;-73
2023/07/30 00:06:54;;;;;;;6.87;5.13;;;17.40;99.90;;;;;;5067352;28;20505;-73
2023/07/30 00:09:20;;;;;;;8.67;6.00;;;17.40;99.90;;;;;;5081243;28;20208;-71
2023/07/30 00:11:46;;;;;;;5.87;5.27;;;17.40;99.90;;;;;;5069680;28;20166;-73
2023/07/30 00:14:11;;;;;;;5.33;4.83;;;17.40;99.90;;;;;;5080680;28;20299;-72
2023/07/30 00:16:37;;;;;;;4.70;4.20;;;17.30;99.90;;;;;;5051748;28;20249;-73
2023/07/30 00:19:02;;;;;;;4.97;4.57;;;17.30;99.90;;;;;;5067090;28;20269;-73
2023/07/30 00:21:28;;;;;;;6.07;5.50;;;17.20;99.90;;;;;;5081570;28;20190;-73
2023/07/30 00:23:53;;;;;;;5.73;4.80;;;17.20;99.90;;;;;;5065227;28;20260;-73
2023/07/30 00:26:19;;;;;;;5.57;4.77;;;17.20;99.90;;;;;;5071829;28;20213;-73
2023/07/30 00:28:45;;;;;;;5.40;4.90;;;17.20;99.90;;;;;;5069507;28;20167;-74
2023/07/30 00:31:11;;;;;;;4.67;4.17;;;17.10;99.90;;;;;;5067675;28;20862;-73
2023/07/30 00:33:36;;;;;;;4.80;4.30;;;17.10;99.90;;;;;;5061701;28;20168;-73
2023/07/30 00:36:02;;;;;;;5.30;4.70;;;17.10;99.90;;;;;;5074467;28;20291;-73
2023/07/30 00:38:27;;;;;;;5.67;4.70;;;17.00;99.90;;;;;;5080840;28;20178;-74
2023/07/30 00:40:53;;;;;;;4.73;4.30;;;17.10;99.90;;;;;;5069540;28;20213;-74
2023/07/30 00:43:18;;;;;;;4.60;4.30;;;17.00;99.90;;;;;;5078797;28;20202;-74
2023/07/30 00:45:45;;;;;;;5.00;4.60;;;17.00;99.90;;;;;;5075296;28;20346;-74
2023/07/30 00:48:11;;;;;;;5.23;3.90;;;17.00;99.90;;;;;;5079897;28;20181;-74
2023/07/30 00:50:38;;;;;;;4.70;4.30;;;16.90;99.90;;;;;;5061682;28;20814;-73
2023/07/30 00:53:04;;;;;;;4.63;4.23;;;16.90;99.90;;;;;;5078204;28;20413;-74
2023/07/30 00:55:30;;;;;;;4.70;4.30;;;16.90;99.90;;;;;;5067538;28;20934;-74
2023/07/30 00:57:57;;;;;;;5.20;4.80;;;16.90;99.90;;;;;;5043527;28;20406;-73
2023/07/30 01:00:24;;;;;;;5.93;4.80;;;16.80;99.90;;;;;;5063889;28;20182;-73
2023/07/30 01:02:51;;;;;;;4.10;3.80;;;16.80;99.90;;;;;;5071835;28;20469;-74
2023/07/30 01:05:16;;;;;;;5.47;4.97;;;16.80;99.90;;;;;;5078711;28;20966;-74
2023/07/30 01:07:42;;;;;;;5.37;4.30;;;16.80;99.90;;;;;;5068498;28;20564;-73
2023/07/30 01:10:08;;;;;;;4.90;4.50;;;16.80;99.90;;;;;;5078141;28;20304;-73
2023/07/30 01:12:35;;;;;;;4.77;4.37;;;16.80;99.90;;;;;;5071521;28;20504;-72
2023/07/30 01:15:02;;;;;;;4.40;4.00;;;16.70;99.90;;;;;;5083380;28;20462;-74
2023/07/30 01:17:28;;;;;;;3.93;3.63;;;16.70;99.90;;;;;;5064151;28;20416;-74
2023/07/30 01:19:57;;;;;;;5.07;4.47;;;16.70;99.90;;;;;;5072116;28;20416;-73
2023/07/30 01:22:23;;;;;;;4.40;4.10;;;16.60;99.90;;;;;;5067154;28;20170;-73
2023/07/30 01:24:49;;;;;;;4.10;3.70;;;16.60;99.90;;;;;;5074051;28;20447;-73
2023/07/30 01:27:39;;;;;;;3.97;3.47;;;16.60;99.90;;;;;;5074648;28;20472;-74
2023/07/30 01:30:20;;;;;;;4.70;3.87;;;16.60;99.90;;;;;;5069269;28;20400;-74
2023/07/30 01:32:49;;;;;;;4.27;3.40;;;16.70;99.90;;;;;;5072944;28;20436;-73
2023/07/30 01:35:15;;;;;;;5.30;4.80;;;16.70;99.90;;;;;;5040436;28;20488;-73
2023/07/30 01:37:43;;;;;;;4.97;4.43;;;16.60;99.90;;;;;;5081278;28;20945;-73
2023/07/30 01:40:09;;;;;;;5.27;3.90;;;16.60;99.90;;;;;;5078007;28;20173;-72
2023/07/30 01:42:36;;;;;;;4.77;4.33;;;16.50;99.90;;;;;;5072772;28;20445;-73
2023/07/30 01:45:02;;;;;;;4.53;4.20;;;16.50;99.90;;;;;;5064918;28;20457;-74
2023/07/30 01:47:27;;;;;;;4.70;4.30;;;16.50;99.90;;;;;;5072313;28;20506;-74
2023/07/30 01:49:53;;;;;;;5.53;4.30;;;16.50;99.90;;;;;;5064229;28;20174;-73
2023/07/30 01:52:18;;;;;;;4.80;4.40;;;16.60;99.90;;;;;;5067995;28;20186;-72
2023/07/30 01:54:44;;;;;;;4.63;4.33;;;16.50;99.90;;;;;;5055078;28;20715;-73
2023/07/30 01:57:10;;;;;;;5.13;4.50;;;16.50;99.90;;;;;;5063730;28;20177;-73
2023/07/30 01:59:35;;;;;;;4.20;3.80;;;16.50;99.90;;;;;;5075658;28;20170;-73
2023/07/30 02:02:01;;;;;;;5.83;5.27;;;16.60;99.90;;;;;;5069637;28;20819;-74
2023/07/30 02:04:27;;;;;;;5.10;4.70;;;16.50;99.90;;;;;;5073658;28;20172;-73
2023/07/30 02:06:52;;;;;;;4.70;4.30;;;16.50;99.90;;;;;;5063271;28;20198;-74
2023/07/30 02:09:18;;;;;;;5.00;4.53;;;16.40;99.90;;;;;;5066755;28;20518;-74
2023/07/30 02:11:44;;;;;;;4.30;4.00;;;16.40;99.90;;;;;;5076663;28;20277;-73
2023/07/30 02:14:10;;;;;;;5.30;3.87;;;16.40;99.90;;;;;;5076673;28;20172;-73
2023/07/30 02:16:35;;;;;;;5.17;3.80;;;16.40;99.90;;;;;;5056963;28;20625;-73
2023/07/30 02:19:01;;;;;;;5.10;4.60;;;16.40;99.90;;;;;;5058231;28;20442;-73
2023/07/30 02:21:27;;;;;;;4.90;4.40;;;16.30;99.90;;;;;;5058031;28;20185;-74
2023/07/30 02:23:52;;;;;;;4.50;4.10;;;16.30;99.90;;;;;;5068478;28;20579;-73
2023/07/30 02:26:18;;;;;;;5.93;4.33;;;16.30;99.90;;;;;;5056409;28;20236;-73
2023/07/30 02:28:43;;;;;;;4.90;4.47;;;16.40;99.90;;;;;;5075544;28;20180;-72
2023/07/30 02:31:09;;;;;;;4.93;4.53;;;16.40;99.90;;;;;;5066759;28;20235;-72
2023/07/30 02:33:35;;;;;;;5.43;4.93;;;16.30;99.90;;;;;;5069242;28;20185;-73
2023/07/30 02:36:00;;;;;;;4.70;4.30;;;16.30;99.90;;;;;;5075102;28;20206;-72
2023/07/30 02:38:26;;;;;;;4.43;4.03;;;16.30;99.90;;;;;;5064421;28;20188;-73
2023/07/30 02:40:51;;;;;;;7.07;4.70;;;16.30;99.90;;;;;;5065746;28;20212;-73
2023/07/30 02:43:17;;;;;;;4.67;3.93;;;16.30;99.90;;;;;;5083010;28;20520;-73
2023/07/30 02:45:43;;;;;;;6.40;5.23;;;16.30;99.90;;;;;;5062324;28;20263;-73
2023/07/30 02:48:08;;;;;;;4.20;3.90;;;16.30;99.90;;;;;;5104970;22;20689;-72
2023/07/30 02:50:34;;;;;;;5.00;4.30;;;16.30;99.90;;;;;;5092436;28;20162;-70
2023/07/30 02:52:59;;;;;;;5.10;4.70;;;16.30;99.90;;;;;;5101737;28;20164;-73
2023/07/30 02:55:25;;;;;;;4.40;4.00;;;16.30;99.90;;;;;;5073518;28;20248;-71
2023/07/30 02:57:51;;;;;;;4.90;4.40;;;16.30;99.90;;;;;;5086125;28;20281;-71
2023/07/30 03:00:16;;;;;;;5.00;4.60;;;16.40;99.90;;;;;;5096656;28;20176;-72
2023/07/30 03:02:42;;;;;;;4.57;4.27;;;16.30;99.90;;;;;;5100790;28;20252;-72
2023/07/30 03:05:08;;;;;;;6.07;4.70;;;16.30;99.90;;;;;;5101552;28;20263;-73
2023/07/30 03:07:33;;;;;;;5.13;4.37;;;16.30;99.90;;;;;;5086039;28;20189;-71
2023/07/30 03:09:59;;;;;;;4.93;4.30;;;16.20;99.90;;;;;;5097305;28;20477;-71
2023/07/30 03:12:25;;;;;;;5.13;4.63;;;16.20;99.90;;;;;;5094205;28;20165;-72
2023/07/30 03:14:50;;;;;;;5.83;4.17;;;16.30;99.90;;;;;;5100986;28;20203;-72
2023/07/30 03:17:16;;;;;;;5.57;5.07;;;16.30;99.90;;;;;;5096984;28;20213;-73
2023/07/30 03:19:41;;;;;;;6.50;4.23;;;16.30;99.90;;;;;;5097365;28;20225;-72
2023/07/30 03:22:07;;;;;;;5.13;3.83;;;16.30;99.90;;;;;;5098892;28;20222;-72
2023/07/30 03:24:32;;;;;;;4.40;4.00;;;16.30;99.90;;;;;;5099066;28;20537;-73
2023/07/30 03:26:58;;;;;;;4.90;4.50;;;16.30;99.90;;;;;;5089150;28;20193;-72
2023/07/30 03:29:24;;;;;;;4.30;4.00;;;16.30;99.90;;;;;;5091097;28;20171;-73
2023/07/30 03:31:49;;;;;;;5.40;3.97;;;16.30;99.90;;;;;;5093184;28;20235;-72
2023/07/30 03:34:15;;;;;;;5.30;4.80;;;16.30;99.90;;;;;;5094130;28;20175;-71
2023/07/30 03:36:40;;;;;;;5.63;5.23;;;16.30;99.90;;;;;;5093771;28;20652;-73
2023/07/30 03:39:06;;;;;;;5.07;4.50;;;16.30;99.90;;;;;;5100726;28;20276;-72
2023/07/30 03:41:31;;;;;;;4.50;4.10;;;16.30;99.90;;;;;;5082349;28;20230;-72
2023/07/30 03:43:57;;;;;;;4.70;4.30;;;16.30;99.90;;;;;;5103867;28;20176;-72
2023/07/30 03:46:22;;;;;;;5.00;4.60;;;16.30;99.90;;;;;;5084313;28;20655;-73
2023/07/30 03:48:48;;;;;;;4.73;4.30;;;16.30;99.90;;;;;;5092656;28;20337;-71
2023/07/30 03:51:14;;;;;;;5.83;5.33;;;16.40;99.90;;;;;;5093044;28;20164;-72
2023/07/30 03:53:39;;;;;;;4.40;4.10;;;16.40;99.90;;;;;;5094485;28;20542;-72
2023/07/30 03:56:05;;;;;;;4.67;4.27;;;16.40;99.90;;;;;;5102498;28;20186;-73
2023/07/30 03:58:31;;;;;;;5.00;4.60;;;16.50;99.90;;;;;;5082044;28;20212;-72
2023/07/30 04:00:56;;;;;;;7.53;5.33;;;16.50;99.90;;;;;;5091720;28;20175;-72
2023/07/30 04:03:22;;;;;;;4.73;4.33;;;16.50;99.90;;;;;;5091623;28;20196;-71
2023/07/30 04:05:47;;;;;;;5.70;5.13;;;16.50;99.90;;;;;;5090980;28;20696;-72
2023/07/30 04:08:13;;;;;;;4.70;4.30;;;16.50;99.90;;;;;;5099033;28;20199;-72
2023/07/30 04:10:39;;;;;;;6.57;6.07;;;16.60;99.90;;;;;;5101858;28;20178;-71
2023/07/30 04:13:07;;;;;;;5.83;5.33;;;16.70;99.90;;;;;;5096648;28;20177;-72
2023/07/30 04:15:33;;;;;;;4.60;4.20;;;16.70;99.90;;;;;;5093050;28;20177;-72
2023/07/30 04:17:59;;;;;;;5.33;4.83;;;16.70;99.90;;;;;;5091646;28;20990;-70
2023/07/30 04:20:24;;;;;;;4.50;4.10;;;16.80;99.90;;;;;;5098800;28;20192;-70
2023/07/30 04:22:50;;;;;;;4.40;4.00;;;16.90;99.90;;;;;;5084833;28;20669;-71
2023/07/30 04:25:16;;;;;;;5.87;4.83;;;16.90;99.90;;;;;;5097696;28;20192;-73
2023/07/30 04:27:42;;;;;;;4.17;3.87;;;17.00;99.90;;;;;;5087642;28;20443;-71
2023/07/30 04:30:08;;;;;;;4.80;4.40;;;17.10;99.90;;;;;;5096718;28;20165;-71
2023/07/30 04:32:33;;;;;;;4.43;4.03;;;17.10;99.90;;;;;;5097489;28;20162;-71
2023/07/30 04:34:59;;;;;;;5.80;5.30;;;17.10;99.90;;;;;;5086090;28;20419;-71
2023/07/30 04:37:25;;;;;;;4.90;4.50;;;17.10;99.90;;;;;;5091780;28;20190;-71
2023/07/30 04:39:50;;;;;;;5.17;4.67;;;17.20;99.90;;;;;;5091984;28;20932;-72
2023/07/30 04:42:16;;;;;;;5.40;5.00;;;17.20;99.90;;;;;;5095287;28;20174;-71
2023/07/30 04:44:41;;;;;;;6.10;5.40;;;17.20;99.90;;;;;;5103952;28;20334;-71
2023/07/30 04:47:07;;;;;;;4.53;3.97;;;17.20;99.90;;;;;;5101025;28;20243;-71
2023/07/30 04:49:33;;;;;;;5.50;5.10;;;17.10;99.90;;;;;;5103885;28;20178;-71
2023/07/30 04:51:59;;;;;;;4.83;4.43;;;17.20;99.90;;;;;;5095423;28;20191;-72
2023/07/30 04:54:24;;;;;;;5.63;5.13;;;17.20;99.90;;;;;;5095077;28;20173;-73
2023/07/30 04:56:50;;;;;;;5.30;4.90;;;17.30;99.90;;;;;;5101727;28;20556;-70
2023/07/30 04:59:16;;;;;;;5.70;4.90;;;17.30;99.90;;;;;;5099213;28;20214;-70
2023/07/30 05:01:41;;;;;;;6.83;4.30;;;17.40;99.90;;;;;;5100839;28;20187;-71
2023/07/30 05:04:07;;;;;;;5.40;4.30;;;17.50;99.90;;;;;;5095513;28;20173;-71
2023/07/30 05:06:32;;;;;;;4.40;4.00;;;17.70;99.90;;;;;;5100107;28;20306;-71
2023/07/30 05:08:58;;;;;;;5.67;5.07;;;17.70;99.90;;;;;;5094794;28;20603;-72
2023/07/30 05:11:24;;;;;;;4.97;4.57;;;17.90;99.90;;;;;;5096878;28;20169;-71
2023/07/30 05:13:49;;;;;;;4.13;3.83;;;18.00;99.90;;;;;;5103716;28;20171;-73
2023/07/30 05:16:15;;;;;;;3.97;3.23;;;18.40;99.90;;;;;;5097589;28;20199;-73
2023/07/30 05:18:40;;;;;;;3.87;3.50;;;18.70;99.90;;;;;;5103119;28;20788;-72
2023/07/30 05:21:06;;;;;;;3.43;3.00;;;19.00;99.90;;;;;;5095539;28;20228;-73
2023/07/30 05:23:32;;;;;;;3.10;2.90;;;19.10;99.90;;;;;;5100670;28;20204;-72
2023/07/30 05:25:57;;;;;;;2.80;2.57;;;19.50;99.90;;;;;;5103446;28;20263;-73
2023/07/30 05:28:23;;;;;;;3.33;3.03;;;19.80;99.90;;;;;;5101111;28;20476;-72
2023/07/30 05:30:48;;;;;;;3.20;2.90;;;20.30;99.90;;;;;;5104431;28;20175;-73
2023/07/30 05:33:14;;;;;;;2.93;2.53;;;20.70;99.90;;;;;;5101670;28;20206;-72
2023/07/30 05:35:40;;;;;;;2.57;2.37;;;21.50;99.90;;;;;;5101419;28;20239;-71
2023/07/30 05:38:05;;;;;;;2.43;2.23;;;22.00;99.90;;;;;;5085114;28;20200;-72
2023/07/30 05:40:31;;;;;;;2.80;2.60;;;21.70;99.90;;;;;;5096210;28;20212;-72
2023/07/30 05:42:56;;;;;;;2.70;2.50;;;21.50;99.90;;;;;;5096076;28;20175;-72
2023/07/30 05:45:22;;;;;;;4.30;2.57;;;20.90;99.90;;;;;;5098085;28;20197;-72
2023/07/30 05:47:48;;;;;;;2.93;2.73;;;20.80;99.90;;;;;;5084035;28;20214;-72
2023/07/30 05:50:13;;;;;;;3.63;1.90;;;20.70;99.90;;;;;;5099319;28;20579;-71
2023/07/30 05:52:39;;;;;;;3.00;2.47;;;20.30;99.90;;;;;;5088580;28;20165;-71
2023/07/30 05:55:05;;;;;;;2.90;2.60;;;20.10;99.90;;;;;;5110437;28;20644;-72
2023/07/30 05:57:30;;;;;;;2.67;2.47;;;20.00;99.90;;;;;;5102452;28;20209;-71
2023/07/30 05:59:56;;;;;;;3.60;2.63;;;20.00;99.90;;;;;;5094041;28;20412;-72
2023/07/30 06:02:21;;;;;;;2.20;2.07;;;20.00;99.90;;;;;;5100087;28;20212;-71
2023/07/30 06:04:48;;;;;;;3.20;2.50;;;20.10;99.90;;;;;;5096640;28;20544;-70
2023/07/30 06:07:14;;;;;;;3.40;2.83;;;20.30;99.90;;;;;;5098827;28;20194;-71
2023/07/30 06:09:39;;;;;;;2.70;2.50;;;20.50;99.90;;;;;;5103447;28;20406;-71
2023/07/30 06:12:06;;;;;;;2.63;2.30;;;20.50;99.90;;;;;;5094110;28;20194;-72
2023/07/30 06:14:32;;;;;;;3.90;2.33;;;20.90;99.90;;;;;;5101343;28;20760;-72
2023/07/30 06:16:57;;;;;;;3.60;2.53;;;21.00;99.90;;;;;;5097219;28;20182;-71
2023/07/30 06:19:23;;;;;;;2.77;2.43;;;21.20;99.90;;;;;;5093445;28;20179;-72
2023/07/30 06:21:49;;;;;;;2.63;2.00;;;22.10;99.90;;;;;;5096257;28;20206;-72
2023/07/30 06:24:14;;;;;;;2.53;2.27;;;21.90;99.90;;;;;;5093426;28;20177;-72
2023/07/30 06:26:40;;;;;;;2.30;2.10;;;22.30;99.90;;;;;;5093484;28;20278;-72
2023/07/30 06:29:06;;;;;;;2.10;1.90;;;22.90;99.90;;;;;;5097473;28;20185;-71
2023/07/30 06:31:31;;;;;;;1.70;1.57;;;23.20;99.90;;;;;;5100378;28;20172;-71
2023/07/30 06:33:57;;;;;;;2.23;2.03;;;22.20;99.90;;;;;;5097377;28;20929;-71
2023/07/30 06:36:22;;;;;;;2.37;1.80;;;22.20;99.90;;;;;;5089600;28;20649;-71
2023/07/30 06:38:48;;;;;;;2.60;2.40;;;22.50;99.90;;;;;;5083626;28;20204;-72
2023/07/30 06:41:14;;;;;;;2.23;2.03;;;23.00;99.90;;;;;;5098772;28;20183;-72
2023/07/30 06:43:39;;;;;;;2.57;2.37;;;22.20;99.90;;;;;;5101599;28;20179;-71
2023/07/30 06:46:05;;;;;;;2.27;2.07;;;21.90;99.90;;;;;;5094052;28;20283;-71
2023/07/30 06:48:31;;;;;;;3.40;3.13;;;22.40;99.90;;;;;;5093764;28;20209;-73
2023/07/30 06:50:57;;;;;;;2.60;2.40;;;22.50;99.90;;;;;;5097157;28;20218;-71
2023/07/30 06:53:22;;;;;;;2.87;2.67;;;22.00;99.90;;;;;;5100340;28;20166;-71
2023/07/30 06:55:48;;;;;;;2.50;2.30;;;22.20;99.90;;;;;;5097978;28;20960;-73
2023/07/30 06:58:14;;;;;;;2.40;2.20;;;22.00;99.90;;;;;;5096665;28;20202;-71
2023/07/30 07:00:39;;;;;;;3.20;2.13;;;22.20;99.90;;;;;;5094218;28;20179;-72
2023/07/30 07:03:05;;;;;;;3.43;2.67;;;21.80;99.90;;;;;;5096593;28;20178;-72
2023/07/30 07:05:31;;;;;;;3.47;2.97;;;22.10;99.90;;;;;;5077193;28;20200;-74
2023/07/30 07:07:56;;;;;;;2.50;2.30;;;21.80;99.90;;;;;;5100776;28;20662;-72
2023/07/30 07:10:22;;;;;;;2.20;2.00;;;21.80;99.90;;;;;;5099137;28;20221;-71
2023/07/30 07:12:48;;;;;;;2.00;1.90;;;22.50;99.90;;;;;;5090617;28;20224;-72
2023/07/30 07:15:13;;;;;;;2.10;1.90;;;22.40;99.90;;;;;;5097115;28;20222;-72
2023/07/30 07:17:39;;;;;;;3.53;1.97;;;22.20;99.90;;;;;;5098572;28;20195;-73
2023/07/30 07:20:07;;;;;;;3.40;2.10;;;22.10;99.90;;;;;;5097464;28;20214;-72
2023/07/30 07:22:33;;;;;;;2.17;1.97;;;22.50;99.90;;;;;;5093429;28;20402;-72
2023/07/30 07:24:58;;;;;;;2.53;2.33;;;22.60;99.90;;;;;;5092915;28;20405;-71
2023/07/30 07:27:24;;;;;;;2.40;1.87;;;23.50;99.90;;;;;;5081483;28;20495;-71
2023/07/30 07:29:51;;;;;;;5.90;1.77;;;24.80;99.90;;;;;;5086503;28;20217;-72
2023/07/30 07:32:16;;;;;;;2.63;2.43;;;24.70;99.90;;;;;;5095582;28;20530;-71
2023/07/30 07:34:46;;;;;;;2.50;2.30;;;24.40;99.90;;;;;;5086607;28;20407;-70
2023/07/30 07:37:14;;;;;;;2.37;2.17;;;24.60;99.90;;;;;;5084283;28;20196;-71
2023/07/30 07:39:43;;;;;;;2.00;1.90;;;24.40;99.90;;;;;;5097799;28;20773;-71
2023/07/30 07:42:09;;;;;;;2.93;2.50;;;24.20;99.90;;;;;;5087803;28;20410;-73
2023/07/30 07:44:35;;;;;;;2.37;2.17;;;23.90;99.90;;;;;;5094604;28;20900;-71
2023/07/30 07:47:00;;;;;;;2.23;2.03;;;23.80;99.90;;;;;;5096800;28;20545;-70
2023/07/30 07:49:26;;;;;;;2.10;1.70;;;23.90;99.90;;;;;;5092889;28;20247;-71
2023/07/30 07:51:52;;;;;;;2.37;1.90;;;24.00;99.90;;;;;;5092823;28;20171;-73
2023/07/30 07:54:17;;;;;;;2.07;1.93;;;23.50;99.90;;;;;;5083409;28;20628;-71
2023/07/30 07:56:43;;;;;;;4.87;2.53;;;23.40;99.90;;;;;;5096527;28;20178;-72
2023/07/30 07:59:08;;;;;;;2.83;2.63;;;23.60;99.90;;;;;;5090399;28;20565;-71
2023/07/30 08:01:34;;;;;;;2.60;2.13;;;23.30;99.90;;;;;;5093700;28;20221;-72
2023/07/30 08:04:00;;;;;;;2.70;2.33;;;23.90;99.90;;;;;;5094813;28;20220;-71
2023/07/30 08:06:25;;;;;;;2.23;1.80;;;24.80;99.90;;;;;;5098694;28;20196;-71
2023/07/30 08:08:51;;;;;;;2.07;1.97;;;24.20;99.90;;;;;;5100205;28;20221;-71
2023/07/30 08:11:16;;;;;;;2.37;2.17;;;24.20;99.90;;;;;;5098696;28;20229;-71
2023/07/30 08:13:42;;;;;;;3.73;2.90;;;23.70;99.90;;;;;;5099047;28;20162;-71
2023/07/30 08:16:08;;;;;;;2.40;2.20;;;24.70;99.90;;;;;;5092352;28;20181;-72
2023/07/30 08:18:33;;;;;;;3.67;2.80;;;24.00;99.90;;;;;;5096706;28;20201;-72
2023/07/30 08:21:00;;;;;;;3.63;2.97;;;24.00;99.90;;;;;;5096916;28;20573;-72
2023/07/30 08:23:26;;;;;;;3.50;2.70;;;24.00;99.90;;;;;;5098995;28;20658;-71
2023/07/30 08:25:51;;;;;;;5.63;2.70;;;23.70;99.90;;;;;;5095262;28;20446;-72
2023/07/30 08:28:17;;;;;;;2.67;2.47;;;23.40;99.90;;;;;;5081583;28;20606;-71
2023/07/30 08:30:43;;;;;;;3.10;2.80;;;24.00;99.90;;;;;;5102154;28;20708;-71
2023/07/30 08:33:08;;;;;;;3.07;2.87;;;23.50;99.90;;;;;;5095409;28;20180;-72
2023/07/30 08:35:34;;;;;;;2.73;2.53;;;24.00;99.90;;;;;;5101449;28;20655;-72
2023/07/30 08:37:59;;;;;;;3.13;2.83;;;23.20;99.90;;;;;;5098357;28;20243;-73
2023/07/30 08:40:25;;;;;;;2.20;2.10;;;23.90;99.90;;;;;;5098444;28;20180;-74
2023/07/30 08:42:52;;;;;;;3.17;2.87;;;24.00;99.90;;;;;;5107186;28;20173;-74
2023/07/30 08:45:18;;;;;;;2.47;2.27;;;23.70;99.90;;;;;;5099873;28;20608;-72
2023/07/30 08:47:45;;;;;;;2.20;2.10;;;23.60;99.90;;;;;;5102014;28;20937;-73
2023/07/30 08:50:10;;;;;;;2.70;2.10;;;23.50;99.90;;;;;;5100019;28;20406;-73
2023/07/30 08:52:37;;;;;;;3.20;2.90;;;23.30;99.90;;;;;;5101781;28;20492;-72
2023/07/30 08:55:06;;;;;;;2.33;2.17;;;23.50;99.90;;;;;;5097152;28;20615;-72
2023/07/30 08:57:33;;;;;;;3.13;2.60;;;24.20;99.90;;;;;;5094418;28;20936;-72
2023/07/30 09:00:14;;;;;;;3.30;3.00;;;24.40;99.90;;;;;;5090575;28;20502;-72
2023/07/30 09:02:50;;;;;;;2.50;2.27;;;25.00;99.90;;;;;;5099100;28;20966;-72
2023/07/30 09:05:16;;;;;;;2.67;2.03;;;25.00;99.90;;;;;;5097046;28;21005;-72
2023/07/30 09:07:42;;;;;;;2.27;2.17;;;26.30;99.90;;;;;;5076746;28;20423;-72
2023/07/30 09:10:08;;;;;;;2.97;2.17;;;25.60;99.90;;;;;;5089028;28;20173;-71
2023/07/30 09:12:35;;;;;;;13.90;4.10;;;24.90;99.90;;;;;;5096099;28;20172;-71
2023/07/30 09:15:05;;;;;;;3.47;2.37;;;24.70;99.90;;;;;;5099120;28;20403;-72
2023/07/30 09:17:31;;;;;;;3.43;1.50;;;25.50;99.90;;;;;;5098458;28;20423;-71
2023/07/30 09:19:59;;;;;;;2.63;1.67;;;24.90;99.90;;;;;;5100063;28;20436;-72
2023/07/30 09:22:30;;;;;;;2.00;1.90;;;24.60;99.90;;;;;;5086109;28;20415;-72
2023/07/30 09:24:57;;;;;;;3.60;1.70;;;25.50;99.90;;;;;;5106695;28;20402;-71
2023/07/30 09:27:26;;;;;;;2.97;2.00;;;26.00;99.90;;;;;;5121146;22;20439;-73
2023/07/30 09:29:56;;;;;;;3.83;2.47;;;25.50;99.90;;;;;;5048737;28;20524;-74
2023/07/30 09:32:32;;;;;;;4.67;2.10;;;26.70;99.90;;;;;;5053619;28;20406;-74
2023/07/30 09:35:08;;;;;;;3.20;1.80;;;25.10;99.90;;;;;;5052539;28;20734;-74
2023/07/30 09:37:39;;;;;;;4.20;2.23;;;23.70;99.90;;;;;;5057651;28;20429;-74
2023/07/30 09:40:13;;;;;;;3.73;2.20;;;23.30;99.90;;;;;;5051705;28;20444;-74
2023/07/30 09:42:42;;;;;;;2.33;2.10;;;24.30;99.90;;;;;;5044206;28;20485;-73
2023/07/30 09:45:23;;;;;;;2.20;2.00;;;25.10;99.90;;;;;;5051488;28;20479;-73
2023/07/30 09:47:51;;;;;;;2.63;2.00;;;24.30;99.90;;;;;;5051629;28;20440;-74
2023/07/30 09:50:17;;;;;;;2.77;2.30;;;24.50;99.90;;;;;;5051391;28;20458;-73
2023/07/30 09:52:44;;;;;;;1.60;1.43;;;24.60;99.90;;;;;;5051660;28;20402;-74
2023/07/30 09:55:10;;;;;;;5.20;2.77;;;23.30;99.90;;;;;;5051557;28;20417;-73
2023/07/30 09:57:37;;;;;;;2.50;2.30;;;23.20;99.90;;;;;;5051755;28;20475;-73
2023/07/30 10:00:08;;;;;;;3.47;2.40;;;24.10;99.90;;;;;;5051209;28;20423;-73
2023/07/30 10:02:46;;;;;;;2.77;2.10;;;24.10;99.90;;;;;;5055222;28;20432;-73
2023/07/30 10:05:19;;;;;;;2.60;1.90;;;24.70;99.90;;;;;;5051070;28;20468;-74
2023/07/30 10:07:55;;;;;;;4.80;2.37;;;25.40;99.90;;;;;;5051232;28;20421;-73
2023/07/30 10:10:24;;;;;;;2.93;1.80;;;24.40;99.90;;;;;;5051152;28;20405;-73
2023/07/30 10:12:52;;;;;;;2.27;2.07;;;24.80;99.90;;;;;;5051384;28;20971;-74
2023/07/30 10:15:23;;;;;;;4.10;2.37;;;24.80;99.90;;;;;;5051252;28;20405;-74
2023/07/30 10:17:50;;;;;;;1.93;1.77;;;25.50;99.90;;;;;;5044713;28;20475;-74
2023/07/30 10:20:28;;;;;;;2.57;1.80;;;25.10;99.90;;;;;;5051113;28;20436;-74
2023/07/30 10:22:56;;;;;;;3.47;2.13;;;25.20;99.90;;;;;;5051283;28;20908;-74
2023/07/30 10:25:26;;;;;;;1.87;1.73;;;25.70;99.90;;;;;;5037947;28;20445;-73
2023/07/30 10:27:52;;;;;;;2.57;1.80;;;25.00;99.90;;;;;;5050703;28;20456;-73
2023/07/30 10:30:21;;;;;;;4.63;2.07;;;25.10;99.90;;;;;;5051342;28;20979;-73
2023/07/30 10:32:57;;;;;;;3.23;2.27;;;24.60;99.90;;;;;;5051178;28;20583;-73
2023/07/30 10:35:48;;;;;;;3.53;2.70;;;24.60;99.90;;;;;;5050902;28;20445;-72
2023/07/30 10:38:27;;;;;;;2.23;2.03;;;24.60;99.90;;;;;;5051593;28;20429;-72
2023/07/30 10:41:05;;;;;;;3.23;1.70;;;24.70;99.90;;;;;;5051780;28;20416;-75
2023/07/30 10:43:39;;;;;;;3.60;2.07;;;24.20;99.90;;;;;;5050196;28;20413;-74
2023/07/30 10:46:05;;;;;;;2.20;1.93;;;24.00;99.90;;;;;;5050641;28;20545;-74
2023/07/30 10:48:34;;;;;;;3.30;2.07;;;23.90;99.90;;;;;;5050397;28;20779;-74
2023/07/30 10:51:01;;;;;;;3.30;2.20;;;24.40;99.90;;;;;;5050493;28;20419;-73
2023/07/30 10:53:27;;;;;;;2.70;1.90;;;25.10;99.90;;;;;;5050526;28;20406;-74
2023/07/30 10:55:54;;;;;;;2.00;1.80;;;24.80;99.90;;;;;;5050584;28;20476;-74
2023/07/30 10:58:20;;;;;;;4.77;2.00;;;24.60;99.90;;;;;;5050081;28;20190;-72
2023/07/30 11:00:46;;;;;;;3.40;2.20;;;24.30;99.90;;;;;;5051205;28;20415;-74
2023/07/30 11:03:11;;;;;;;2.33;2.13;;;24.30;99.90;;;;;;5050477;28;20507;-74
2023/07/30 11:05:40;;;;;;;3.73;2.50;;;24.70;99.90;;;;;;5050638;28;20189;-73
2023/07/30 11:08:06;;;;;;;2.37;2.00;;;24.90;99.90;;;;;;5050382;28;20262;-73
2023/07/30 11:10:31;;;;;;;5.30;1.80;;;25.20;99.90;;;;;;5050102;28;20424;-74
2023/07/30 11:12:57;;;;;;;2.73;2.30;;;25.10;99.90;;;;;;5050524;28;20207;-73
2023/07/30 11:15:24;;;;;;;2.50;1.90;;;24.80;99.90;;;;;;5050401;28;20224;-73
2023/07/30 11:17:52;;;;;;;3.97;2.17;;;24.70;99.90;;;;;;5050302;28;20439;-73
2023/07/30 11:20:26;;;;;;;5.40;2.50;;;25.20;99.90;;;;;;5050135;28;20944;-74
2023/07/30 11:22:53;;;;;;;2.73;1.60;;;25.50;99.90;;;;;;5037306;28;20435;-74
2023/07/30 11:25:19;;;;;;;1.77;1.67;;;25.50;99.90;;;;;;5034111;28;20953;-73
2023/07/30 11:27:49;;;;;;;2.23;1.90;;;25.60;99.90;;;;;;5050334;28;20449;-73
2023/07/30 11:30:15;;;;;;;5.30;2.07;;;25.70;99.90;;;;;;5049841;28;20398;-73
2023/07/30 11:32:44;;;;;;;4.43;2.20;;;25.40;99.90;;;;;;5050849;28;20406;-74
2023/07/30 11:35:11;;;;;;;2.40;2.20;;;25.80;99.90;;;;;;5050338;28;20218;-73
2023/07/30 11:37:39;;;;;;;6.23;2.10;;;25.70;99.90;;;;;;5049935;28;20421;-73
2023/07/30 11:40:07;;;;;;;6.80;1.80;;;25.70;99.90;;;;;;5051739;28;20941;-73
2023/07/30 11:42:34;;;;;;;5.60;2.03;;;25.70;99.90;;;;;;5051322;28;20441;-73
2023/07/30 11:45:20;;;;;;;3.37;2.20;;;25.70;99.90;;;;;;5051325;28;20805;-74
2023/07/30 11:47:46;;;;;;;2.37;1.47;;;25.50;99.90;;;;;;5051068;28;20832;-74
2023/07/30 11:50:11;;;;;;;3.03;1.90;;;25.70;99.90;;;;;;5050741;28;20416;-75
2023/07/30 11:52:59;;;;;;;2.77;2.00;;;25.60;99.90;;;;;;5052936;28;20651;-73
2023/07/30 11:55:38;;;;;;;2.47;2.20;;;25.90;99.90;;;;;;5052778;28;20545;-73
2023/07/30 11:58:04;;;;;;;3.57;1.83;;;25.80;99.90;;;;;;5054029;28;20430;-74
2023/07/30 12:00:31;;;;;;;2.10;1.90;;;25.50;99.90;;;;;;5053851;28;20413;-75
2023/07/30 12:03:02;;;;;;;4.50;2.53;;;25.70;99.90;;;;;;5054234;28;20441;-74
2023/07/30 12:05:36;;;;;;;6.73;2.10;;;25.60;99.90;;;;;;5052836;28;21010;-74
2023/07/30 12:08:03;;;;;;;1.93;1.73;;;25.60;99.90;;;;;;5053522;28;20459;-74
2023/07/30 12:10:51;;;;;;;5.13;1.60;;;25.50;99.90;;;;;;5053594;28;20919;-74
2023/07/30 12:13:18;;;;;;;1.83;1.63;;;25.20;99.90;;;;;;5053877;28;20416;-74
2023/07/30 12:15:54;;;;;;;2.00;1.80;;;25.60;99.90;;;;;;5053801;28;20416;-74
2023/07/30 12:18:20;;;;;;;2.30;1.53;;;25.80;99.90;;;;;;5053485;28;20430;-74
2023/07/30 12:20:50;;;;;;;2.90;2.30;;;25.50;99.90;;;;;;5046974;28;20427;-73
2023/07/30 12:23:16;;;;;;;3.13;2.00;;;25.50;99.90;;;;;;5053427;28;20418;-72
2023/07/30 12:25:42;;;;;;;2.00;1.83;;;25.50;99.90;;;;;;5053284;28;20462;-73
2023/07/30 12:28:08;;;;;;;1.80;1.50;;;25.50;99.90;;;;;;5052975;28;20501;-73
2023/07/30 12:30:35;;;;;;;2.03;1.77;;;25.40;99.90;;;;;;5053035;28;20273;-73
2023/07/30 12:33:01;;;;;;;2.33;1.83;;;25.50;99.90;;;;;;5053188;28;20440;-74
2023/07/30 12:35:26;;;;;;;2.53;2.10;;;25.80;99.90;;;;;;5039183;28;20999;-73
2023/07/30 12:37:52;;;;;;;3.50;2.20;;;26.00;99.90;;;;;;5055666;28;20284;-73
2023/07/30 12:40:18;;;;;;;4.40;2.03;;;25.50;99.90;;;;;;5053008;28;20267;-73
2023/07/30 12:42:43;;;;;;;2.13;1.70;;;25.40;99.90;;;;;;5053121;28;20652;-74
2023/07/30 12:45:09;;;;;;;5.37;2.60;;;25.50;99.90;;;;;;5052933;28;20537;-74
2023/07/30 12:47:36;;;;;;;3.47;2.30;;;25.30;99.90;;;;;;5053029;28;20178;-74